Data for 01/27/2018

Time Sea-Level Adjusted Pressure Absolute Pressure Temperature Relative Humidity Dew Point   
(mb) (inHg) (mb) (inHg) (C) (F) (%) (C) (F)
00:05 1020 30.12 850 25.1 -2.6 27.4 37 -15.3 4.5
00:10 1020 30.12 850 25.1 -2.6 27.3 39 -14.9 5.2
00:15 1020 30.12 849 25.07 -2.7 27.1 39 -14.9 5.2
00:20 1020 30.12 849 25.07 -2.8 27 40 -14.7 5.5
00:25 1020 30.12 849 25.07 -2.8 26.9 40 -14.7 5.5
00:30 1020 30.12 849 25.07 -2.8 27 39 -14.8 5.4
00:35 1020 30.12 849 25.07 -2.7 27.1 40 -14.6 5.7
00:40 1020 30.12 850 25.1 -2.7 27.1 40 -14.4 6.1
00:45 1020 30.12 850 25.1 -2.8 27 40 -14.5 6
00:50 1020 30.12 850 25.1 -2.7 27.1 40 -14.6 5.7
00:55 1020 30.12 850 25.1 -2.7 27.2 40 -14.5 5.8
01:00 1020 30.12 850 25.1 -2.7 27.1 40 -14.6 5.8
01:05 1020 30.12 850 25.1 -2.6 27.4 40 -14.5 5.9
01:10 1020 30.12 850 25.1 -2.6 27.4 41 -14.2 6.5
01:15 1021 30.15 850 25.1 -2.6 27.3 40 -14.4 6
01:20 1021 30.15 850 25.1 -2.7 27.1 41 -14.2 6.4
01:25 1021 30.15 850 25.1 -2.8 26.9 42 -14.2 6.5
01:30 1021 30.15 850 25.1 -3 26.7 43 -13.9 7
01:35 1021 30.15 850 25.1 -3.3 26.1 45 -13.5 7.7
01:40 1021 30.15 850 25.1 -3.6 25.5 46 -13.5 7.6
01:45 1021 30.15 850 25.1 -3.8 25.1 47 -13.4 7.8
01:50 1021 30.15 850 25.1 -4 24.8 47 -13.6 7.4
01:55 1021 30.15 850 25.1 -4.2 24.5 49 -13.4 7.8
02:00 1021 30.15 850 25.1 -4.2 24.4 49 -13.4 7.8
02:05 1021 30.15 850 25.1 -4.4 24.1 48 -13.7 7.3
02:10 1021 30.15 850 25.1 -4.5 23.8 50 -13.6 7.6
02:15 1021 30.15 850 25.1 -4.5 23.9 48 -14 6.9
02:20 1021 30.15 850 25.1 -4.5 24 50 -13.3 8.1
02:25 1021 30.15 850 25.1 -4.4 24.1 47 -14.1 6.6
02:30 1021 30.15 850 25.1 -4.2 24.4 49 -13.5 7.7
02:35 1021 30.15 850 25.1 -4.2 24.4 48 -13.6 7.4
02:40 1021 30.15 850 25.1 -4.1 24.6 41 -15.7 3.8
02:45 1021 30.15 850 25.1 -3.4 25.8 42 -14.5 6
02:50 1021 30.15 850 25.1 -3.4 25.8 42 -14.5 5.9
02:55 1021 30.15 850 25.1 -3.5 25.7 40 -15.2 4.6
03:00 1021 30.15 850 25.1 -3.4 26 41 -14.8 5.3
03:05 1021 30.15 850 25.1 -3.3 26 42 -14.5 5.8
03:10 1021 30.15 850 25.1 -3.5 25.7 43 -14.5 5.9
03:15 1021 30.15 850 25.1 -3.7 25.3 42 -15 5
03:20 1021 30.15 850 25.1 -3.5 25.6 39 -15.5 4.1
03:25 1021 30.15 850 25.1 -3.3 26.1 40 -15 5
03:30 1021 30.15 850 25.1 -3.4 25.8 42 -14.5 5.8
03:35 1021 30.15 850 25.1 -3.7 25.3 43 -14.6 5.7
03:40 1021 30.15 850 25.1 -3.9 25 45 -14.2 6.4
03:45 1021 30.15 850 25.1 -4.1 24.6 45 -14.5 6
03:50 1021 30.15 850 25.1 -4.2 24.5 46 -14.3 6.3
03:55 1021 30.15 850 25.1 -4.3 24.3 46 -14.2 6.4
04:00 1021 30.15 850 25.1 -4.4 24.1 47 -14.1 6.5
04:05 1021 30.15 850 25.1 -4.5 23.9 47 -14.1 6.7
04:10 1021 30.15 850 25.1 -4.5 23.8 45 -14.7 5.6
04:15 1021 30.15 850 25.1 -4.6 23.8 47 -14.4 6.1
04:20 1021 30.15 850 25.1 -4.6 23.8 47 -14.2 6.4
04:25 1021 30.15 850 25.1 -4.8 23.4 51 -13.5 7.7
04:30 1021 30.15 850 25.1 -5.3 22.5 54 -13.1 8.4
04:35 1021 30.15 850 25.1 -5.8 21.6 54 -13.7 7.4
04:40 1021 30.15 850 25.1 -5.8 21.5 55 -13.4 7.8
04:45 1021 30.15 850 25.1 -5.9 21.4 54 -13.8 7.1
04:50 1021 30.15 850 25.1 -5.6 21.9 52 -14 6.8
04:55 1021 30.15 850 25.1 -5.4 22.3 51 -14.1 6.6
05:00 1021 30.15 850 25.1 -5.1 22.8 52 -13.4 7.8
05:05 1021 30.15 850 25.1 -5 22.9 49 -14.2 6.5
05:10 1021 30.15 850 25.1 -4.8 23.3 51 -13.5 7.7
05:15 1021 30.15 850 25.1 -4.7 23.6 47 -14.3 6.2
05:20 1021 30.15 850 25.1 -4.3 24.2 45 -14.5 5.9
05:25 1021 30.15 850 25.1 -4.1 24.6 45 -14.3 6.2
05:30 1021 30.15 850 25.1 -4.1 24.7 45 -14.3 6.2
05:35 1021 30.15 850 25.1 -4.1 24.6 44 -14.5 5.9
05:40 1021 30.15 850 25.1 -4 24.9 44 -14.4 6.1
05:45 1021 30.15 850 25.1 -3.9 25 44 -14.5 5.9
05:50 1021 30.15 850 25.1 -3.9 25 44 -14.6 5.8
05:55 1021 30.15 850 25.1 -3.9 25 44 -14.5 5.9
06:00 1021 30.15 850 25.1 -3.9 24.9 44 -14.4 6
06:05 1021 30.15 851 25.13 -4 24.8 44 -14.4 6
06:10 1021 30.15 851 25.13 -4 24.8 44 -14.4 6
06:15 1021 30.15 851 25.13 -4 24.8 45 -14.3 6.2
06:20 1021 30.15 851 25.13 -4 24.8 45 -14.3 6.3
06:25 1021 30.15 851 25.13 -4.1 24.5 48 -13.5 7.7
06:30 1021 30.15 851 25.13 -5.8 21.6 54 -13.5 7.6
06:35 1021 30.15 851 25.13 -6.5 20.3 57 -13.6 7.4
06:40 1021 30.15 851 25.13 -6.6 20.1 53 -14.6 5.7
06:45 1021 30.15 851 25.13 -6.5 20.4 56 -14 6.8
06:50 1021 30.15 851 25.13 -6.7 20 55 -14.2 6.4
06:55 1021 30.15 851 25.13 -7 19.5 54 -14.8 5.3
07:00 1021 30.15 851 25.13 -6.4 20.5 53 -14.5 6
07:05 1021 30.15 851 25.13 -6.6 20.1 54 -14.3 6.2
07:10 1022 30.18 851 25.13 -6.4 20.4 54 -14.3 6.3
07:15 1022 30.18 851 25.13 -6.3 20.6 55 -14 6.8
07:20 1022 30.18 851 25.13 -6.7 20 57 -13.8 7.2
07:25 1022 30.18 851 25.13 -7 19.3 56 -14.5 5.9
07:30 1022 30.18 851 25.13 -6.9 19.6 55 -14.5 5.9
07:35 1022 30.18 851 25.13 -6.9 19.6 54 -14.7 5.6
07:40 1022 30.18 851 25.13 -6.4 20.5 54 -14.3 6.3
07:45 1022 30.18 851 25.13 -6.5 20.4 56 -13.8 7.1
07:50 1022 30.18 851 25.13 -6 21.3 52 -14.3 6.2
07:55 1022 30.18 851 25.13 -5.5 22 51 -14.1 6.6
08:00 1022 30.18 851 25.13 -6 21.3 55 -13.7 7.4
08:05 1022 30.18 851 25.13 -6.5 20.4 58 -13.4 7.9
08:10 1022 30.18 851 25.13 -6.8 19.8 59 -13.5 7.7
08:15 1022 30.18 851 25.13 -6.6 20.1 56 -14 6.9
08:20 1022 30.18 851 25.13 -6.3 20.6 54 -14.2 6.4
08:25 1022 30.18 851 25.13 -6.1 21 54 -14 6.8
08:30 1022 30.18 851 25.13 -6.2 20.9 54 -14 6.7
08:35 1022 30.18 851 25.13 -5.6 21.9 52 -14.1 6.6
08:40 1022 30.18 851 25.13 -5.2 22.7 52 -13.5 7.6
08:45 1022 30.18 851 25.13 -5.4 22.3 54 -13.3 8
08:50 1022 30.18 851 25.13 -5.6 22 55 -13.2 8.2
08:55 1022 30.18 851 25.13 -5.5 22.1 55 -13.2 8.2
09:00 1022 30.18 851 25.13 -5.5 22.1 55 -13.3 8.1
09:05 1022 30.18 851 25.13 -5.6 21.8 57 -12.8 9
09:10 1022 30.18 851 25.13 -5.7 21.7 57 -12.8 8.9
09:15 1022 30.18 851 25.13 -5.7 21.7 59 -12.5 9.5
09:20 1022 30.18 851 25.13 -5.7 21.7 58 -12.6 9.2
09:25 1022 30.18 851 25.13 -5.5 22.1 59 -12.3 9.9
09:30 1022 30.18 851 25.13 -5.2 22.6 57 -12.6 9.4
09:35 1022 30.18 851 25.13 -5.1 22.9 57 -12.2 10
09:40 1022 30.18 851 25.13 -5 23 57 -12.2 10
09:45 1022 30.18 851 25.13 -4.9 23.2 56 -12.3 9.8
09:50 1022 30.18 851 25.13 -4.8 23.4 56 -12.3 9.9
09:55 1022 30.18 851 25.13 -4.2 24.4 53 -12.5 9.5
10:00 1022 30.18 851 25.13 -3.9 24.9 52 -12.5 9.5
10:05 1022 30.18 851 25.13 -3.8 25.2 52 -12.3 9.8
10:10 1022 30.18 851 25.13 -3.6 25.5 51 -12.4 9.7
10:15 1022 30.18 851 25.13 -3.2 26.3 48 -12.7 9.2
10:20 1022 30.18 851 25.13 -2.7 27.1 48 -12.2 10.1
10:25 1022 30.18 851 25.13 -2.5 27.5 48 -12 10.4
10:30 1022 30.18 851 25.13 -2.3 27.8 46 -12.5 9.5
10:35 1022 30.18 851 25.13 -2.3 27.8 46 -12.4 9.6
10:40 1022 30.18 851 25.13 -2 28.3 46 -12.3 9.9
10:45 1022 30.18 851 25.13 -1.6 29.1 43 -12.8 9
10:50 1022 30.18 851 25.13 -1.2 29.9 42 -12.5 9.4
10:55 1022 30.18 851 25.13 -1.3 29.7 44 -11.9 10.5
11:00 1022 30.18 851 25.13 -1.6 29.2 44 -12.3 9.9
11:05 1022 30.18 851 25.13 -1.5 29.3 43 -12.6 9.3
11:10 1022 30.18 851 25.13 -1.6 29.2 41 -13.1 8.5
11:15 1022 30.18 851 25.13 -1.4 29.5 41 -13 8.6
11:20 1022 30.18 851 25.13 -1 30.2 40 -12.9 8.7
11:25 1022 30.18 851 25.13 -0.5 31.1 39 -12.8 9
11:30 1022 30.18 851 25.13 -0.7 30.8 40 -12.8 9
11:35 1022 30.18 851 25.13 -0.5 31.1 40 -12.5 9.4
11:40 1022 30.18 851 25.13 -0.9 30.4 39 -13.3 8.1
11:45 1022 30.18 851 25.13 -0.5 31 39 -12.8 9
11:50 1021 30.15 851 25.13 -0.1 31.8 35 -13.7 7.3
11:55 1021 30.15 850 25.1 0.1 32.1 38 -12.7 9.1
12:00 1021 30.15 850 25.1 0.5 32.8 36 -13 8.5
12:05 1021 30.15 850 25.1 0.3 32.5 37 -12.7 9.2
12:10 1021 30.15 850 25.1 0.1 32.1 38 -12.7 9.1
12:15 1021 30.15 850 25.1 0.2 32.3 36 -13.1 8.5
12:20 1021 30.15 850 25.1 0.2 32.3 35 -13.6 7.6
12:25 1021 30.15 850 25.1 -0.4 31.3 36 -13.6 7.6
12:30 1021 30.15 850 25.1 -0.6 31 38 -13.2 8.3
12:35 1021 30.15 850 25.1 -0.1 31.7 35 -13.8 7.2
12:40 1021 30.15 850 25.1 0 32.1 36 -13.5 7.7
12:45 1021 30.15 850 25.1 0.3 32.5 37 -12.8 9
12:50 1021 30.15 850 25.1 0.4 32.6 36 -13.1 8.4
12:55 1020 30.12 850 25.1 0.7 33.3 35 -13 8.6
13:00 1020 30.12 849 25.07 0.9 33.7 36 -12.5 9.5
13:05 1020 30.12 849 25.07 0.8 33.5 36 -12.5 9.5
13:10 1020 30.12 849 25.07 0.5 32.8 37 -12.6 9.4
13:15 1020 30.12 849 25.07 0.1 32.1 37 -13 8.6
13:20 1020 30.12 849 25.07 0.1 32.1 37 -13.1 8.3
13:25 1020 30.12 849 25.07 0.2 32.4 38 -12.5 9.6
13:30 1020 30.12 849 25.07 0.4 32.7 37 -12.6 9.4
13:35 1020 30.12 849 25.07 0.8 33.4 37 -12.3 9.9
13:40 1020 30.12 849 25.07 1.7 35.1 34 -12.6 9.4
13:45 1020 30.12 849 25.07 1.7 35.1 33 -12.8 8.9
13:50 1020 30.12 849 25.07 1.4 34.5 34 -12.9 8.8
13:55 1019 30.09 849 25.07 1.1 34 36 -12.3 9.8
14:00 1019 30.09 849 25.07 1.3 34.4 34 -12.9 8.8
14:05 1019 30.09 849 25.07 1.7 35.1 35 -12.2 10
14:10 1019 30.09 849 25.07 1.5 34.7 37 -11.6 11.1
14:15 1019 30.09 849 25.07 1.6 34.9 36 -12 10.5
14:20 1019 30.09 848 25.04 2.3 36.2 33 -12.3 9.9
14:25 1019 30.09 848 25.04 2 35.7 35 -11.8 10.7
14:30 1019 30.09 849 25.07 2.1 35.8 36 -11.6 11.1
14:35 1019 30.09 848 25.04 2.7 36.9 33 -11.8 10.7
14:40 1019 30.09 848 25.04 2.9 37.1 36 -10.9 12.4
14:45 1019 30.09 849 25.07 2.8 37 35 -11.1 11.9
14:50 1019 30.09 849 25.07 2.5 36.4 38 -10.5 13.1
14:55 1019 30.09 849 25.07 2 35.7 38 -10.9 12.4
15:00 1020 30.12 849 25.07 2 35.5 37 -11.2 11.9
15:05 1020 30.12 849 25.07 1.9 35.4 39 -10.7 12.7
15:10 1020 30.12 849 25.07 1.5 34.8 40 -10.6 12.9
15:15 1020 30.12 849 25.07 1.8 35.3 40 -10.4 13.2
15:20 1020 30.12 849 25.07 1.7 35.1 40 -10.4 13.2
15:25 1020 30.12 849 25.07 1.4 34.5 41 -10.6 13
15:30 1019 30.09 849 25.07 0.8 33.4 43 -10.3 13.4
15:35 1019 30.09 849 25.07 0.7 33.3 44 -10.2 13.7
15:40 1019 30.09 849 25.07 0.6 33 44 -10.5 13.2
15:45 1019 30.09 849 25.07 0.7 33.2 45 -10.1 13.9
15:50 1019 30.09 849 25.07 0.7 33.3 43 -10.5 13.1
15:55 1019 30.09 848 25.04 0.7 33.2 44 -10.1 13.8
16:00 1019 30.09 848 25.04 0.7 33.3 43 -10.6 12.9
16:05 1019 30.09 848 25.04 0.7 33.3 44 -10.2 13.7
16:10 1019 30.09 848 25.04 0.9 33.6 42 -10.6 12.9
16:15 1019 30.09 848 25.04 0.9 33.6 42 -10.6 12.9
16:20 1019 30.09 848 25.04 0.8 33.5 44 -10 14
16:25 1019 30.09 848 25.04 0.9 33.6 44 -10.1 13.8
16:30 1019 30.09 848 25.04 1 33.8 46 -9.3 15.3
16:35 1019 30.09 848 25.04 1 33.8 45 -9.7 14.6
16:40 1019 30.09 848 25.04 0.9 33.6 44 -10 14
16:45 1019 30.09 848 25.04 0.7 33.3 43 -10.5 13.1
16:50 1019 30.09 848 25.04 0.7 33.3 42 -10.7 12.8
16:55 1019 30.09 848 25.04 0.8 33.4 47 -9.3 15.3
17:00 1019 30.09 848 25.04 0.9 33.6 45 -9.8 14.3
17:05 1019 30.09 848 25.04 0.9 33.6 47 -9.2 15.5
17:10 1019 30.09 848 25.04 0.9 33.7 45 -9.6 14.8
17:15 1019 30.09 848 25.04 1 33.8 47 -9 15.8
17:20 1019 30.09 848 25.04 0.8 33.4 47 -9.3 15.3
17:25 1019 30.09 848 25.04 0.5 33 49 -9.1 15.7
17:30 1019 30.09 848 25.04 0.4 32.8 49 -9 15.8
17:35 1019 30.09 848 25.04 0.5 32.9 48 -9.2 15.5
17:40 1019 30.09 848 25.04 0.9 33.6 47 -9.2 15.5
17:45 1019 30.09 848 25.04 1 33.7 47 -9 15.8
17:50 1019 30.09 848 25.04 1 33.7 48 -8.8 16.2
17:55 1019 30.09 848 25.04 1.1 34 49 -8.5 16.8
18:00 1019 30.09 848 25.04 1.5 34.7 48 -8.3 17.1
18:05 1019 30.09 848 25.04 1.7 35.1 47 -8.4 16.9
18:10 1019 30.09 848 25.04 2 35.6 48 -8 17.6
18:15 1019 30.09 848 25.04 2.1 35.7 47 -8.2 17.2
18:20 1019 30.09 848 25.04 2.2 36 46 -8.3 17
18:25 1019 30.09 848 25.04 2.4 36.3 46 -8 17.6
18:30 1019 30.09 848 25.04 2.3 36.1 48 -7.7 18.2
18:35 1019 30.09 848 25.04 2.3 36.1 46 -8.1 17.4
18:40 1019 30.09 848 25.04 2.3 36.2 47 -8 17.6
18:45 1019 30.09 848 25.04 2.3 36.2 47 -7.9 17.7
18:50 1019 30.09 848 25.04 2.4 36.3 47 -7.8 17.9
18:55 1019 30.09 848 25.04 2.3 36.2 48 -7.7 18.2
19:00 1019 30.09 848 25.04 2.3 36.1 48 -7.7 18.1
19:05 1019 30.09 848 25.04 2.4 36.2 46 -8 17.6
19:10 1019 30.09 848 25.04 2.5 36.5 45 -8.2 17.2
19:15 1019 30.09 848 25.04 2.6 36.7 46 -8 17.6
19:20 1019 30.09 848 25.04 2.5 36.5 47 -7.8 18
19:25 1019 30.09 848 25.04 2.5 36.4 47 -7.8 18
19:30 1019 30.09 848 25.04 2.5 36.5 46 -8.1 17.5
19:35 1019 30.09 848 25.04 2.6 36.7 47 -7.7 18.1
19:40 1019 30.09 848 25.04 2.5 36.5 49 -7.2 19
19:45 1019 30.09 849 25.07 2.4 36.4 48 -7.6 18.3
19:50 1019 30.09 849 25.07 2.6 36.6 49 -7.2 19.1
19:55 1019 30.09 849 25.07 2.5 36.5 48 -7.5 18.6
20:00 1020 30.12 849 25.07 2.5 36.5 49 -7.2 19
20:05 1020 30.12 849 25.07 2.4 36.4 48 -7.5 18.6
20:10 1020 30.12 849 25.07 2.4 36.2 50 -7.1 19.3
20:15 1020 30.12 849 25.07 2.3 36.1 49 -7.4 18.6
20:20 1020 30.12 849 25.07 2.3 36.1 49 -7.2 19
20:25 1020 30.12 849 25.07 2.2 36 50 -7.3 18.9
20:30 1020 30.12 849 25.07 2.3 36.2 49 -7.4 18.6
20:35 1020 30.12 849 25.07 2.3 36.2 49 -7.3 18.9
20:40 1020 30.12 849 25.07 2.4 36.3 49 -7.2 19.1
20:45 1020 30.12 849 25.07 2.3 36.2 49 -7.3 18.9
20:50 1020 30.12 849 25.07 2.4 36.2 49 -7.2 19
20:55 1020 30.12 849 25.07 2.4 36.4 47 -7.7 18.1
21:00 1020 30.12 849 25.07 2.6 36.6 48 -7.5 18.5
21:05 1020 30.12 849 25.07 2.5 36.6 49 -7.1 19.3
21:10 1020 30.12 849 25.07 2.3 36.2 49 -7.3 18.9
21:15 1020 30.12 849 25.07 2.5 36.4 46 -7.9 17.7
21:20 1020 30.12 850 25.1 2.6 36.7 48 -7.3 18.9
21:25 1020 30.12 849 25.07 2.5 36.4 48 -7.5 18.6
21:30 1020 30.12 849 25.07 2.5 36.5 48 -7.6 18.4
21:35 1020 30.12 849 25.07 2.4 36.4 48 -7.5 18.5
21:40 1020 30.12 849 25.07 2.4 36.3 47 -7.7 18.1
21:45 1020 30.12 849 25.07 2.4 36.4 46 -8 17.6
21:50 1020 30.12 849 25.07 2.5 36.5 47 -7.7 18.1
21:55 1020 30.12 849 25.07 2.4 36.4 47 -7.6 18.3
22:00 1020 30.12 849 25.07 2.4 36.3 48 -7.6 18.2
22:05 1020 30.12 850 25.1 2.4 36.4 46 -7.9 17.7
22:10 1020 30.12 850 25.1 2.5 36.6 47 -7.8 18
22:15 1020 30.12 850 25.1 2.5 36.4 47 -7.7 18.1
22:20 1020 30.12 850 25.1 2.5 36.5 47 -7.8 17.9
22:25 1021 30.15 850 25.1 2.6 36.6 47 -7.7 18.2
22:30 1021 30.15 850 25.1 2.6 36.6 47 -7.6 18.3
22:35 1021 30.15 850 25.1 2.6 36.6 47 -7.5 18.5
22:40 1021 30.15 850 25.1 2.5 36.5 47 -7.6 18.4
22:45 1021 30.15 850 25.1 2.5 36.5 47 -7.6 18.3
22:50 1021 30.15 850 25.1 2.5 36.5 48 -7.4 18.7
22:55 1021 30.15 850 25.1 2.5 36.5 49 -7.3 18.9
23:00 1021 30.15 850 25.1 2.4 36.3 48 -7.4 18.7
23:05 1021 30.15 850 25.1 2.4 36.3 49 -7.3 18.9
23:10 1021 30.15 850 25.1 2.3 36.2 49 -7.3 18.9
23:15 1021 30.15 850 25.1 2.4 36.3 49 -7.2 19.1
23:20 1021 30.15 850 25.1 2.4 36.3 48 -7.6 18.4
23:25 1021 30.15 850 25.1 2.5 36.5 49 -7.1 19.3
23:30 1021 30.15 850 25.1 2.4 36.3 50 -6.9 19.6
23:35 1021 30.15 850 25.1 2.3 36.1 52 -6.7 20
23:40 1021 30.15 850 25.1 2.3 36.1 50 -7 19.5
23:45 1021 30.15 850 25.1 2.3 36.1 51 -6.9 19.6
23:50 1021 30.15 850 25.1 2.3 36.2 51 -6.8 19.7
23:55 1021 30.15 850 25.1 2.3 36.1 50 -7 19.3
24:00 1021 30.15 850 25.1 2.3 36.2 52 -6.7 20